createdAt,value
2022-08-05T00:01:28.427Z,16.10
2022-08-05T00:06:33.538Z,15.30
2022-08-05T00:11:48.240Z,14.80
2022-08-05T00:16:54.030Z,16.60
2022-08-05T00:21:57.616Z,15.50
2022-08-05T00:27:01.004Z,15.40
2022-08-05T00:32:15.010Z,15.10
2022-08-05T00:37:21.860Z,14.50
2022-08-05T00:42:37.096Z,14.30
2022-08-05T00:47:57.188Z,15.40
2022-08-05T00:53:09.877Z,14.10
2022-08-05T00:58:27.728Z,15.10
2022-08-05T01:03:33.492Z,14.70
2022-08-05T01:08:43.207Z,14.90
2022-08-05T01:13:59.964Z,14.10
2022-08-05T01:20:00.723Z,14.60
2022-08-05T01:25:39.998Z,13.10
2022-08-05T01:31:05.181Z,14.60
2022-08-05T01:36:16.072Z,14.60
2022-08-05T01:41:25.704Z,14.50
2022-08-05T01:46:42.442Z,14.90
2022-08-05T01:51:51.840Z,14.80
2022-08-05T01:58:18.880Z,14.40
2022-08-05T02:02:25.982Z,15.60
2022-08-05T02:07:32.454Z,15.10
2022-08-05T02:12:58.339Z,16.10
2022-08-05T02:18:32.588Z,16.00
2022-08-05T02:23:40.513Z,15.50
2022-08-05T02:28:46.064Z,16.20
2022-08-05T02:33:57.389Z,15.90
2022-08-05T02:39:03.231Z,15.30
2022-08-05T02:44:11.962Z,15.80
2022-08-05T02:49:17.618Z,15.60
2022-08-05T02:54:34.876Z,16.10
2022-08-05T02:59:50.231Z,15.00
2022-08-05T03:05:00.909Z,17.30
2022-08-05T03:10:04.580Z,16.10
2022-08-05T03:15:12.631Z,16.40
2022-08-05T03:20:15.783Z,15.00
2022-08-05T03:25:33.268Z,16.70
2022-08-05T03:30:47.711Z,16.70
2022-08-05T03:35:51.728Z,16.40
2022-08-05T03:40:55.159Z,17.10
2022-08-05T03:46:04.129Z,15.40
2022-08-05T03:52:36.992Z,15.80
2022-08-05T03:56:47.911Z,14.90
2022-08-05T04:01:59.102Z,15.70
2022-08-05T04:07:03.945Z,16.60
2022-08-05T04:12:23.568Z,16.20
2022-08-05T04:17:55.879Z,17.00
2022-08-05T04:22:53.935Z,17.10
2022-08-05T04:33:08.664Z,15.10
2022-08-05T04:38:11.852Z,14.90
2022-08-05T04:43:22.023Z,14.70
2022-08-05T04:48:27.396Z,14.50
2022-08-05T04:53:33.408Z,14.10
2022-08-05T04:58:38.458Z,13.10
2022-08-05T05:03:42.158Z,11.80
2022-08-05T05:08:45.841Z,11.50
2022-08-05T05:13:53.300Z,11.00
2022-08-05T05:19:18.941Z,10.40
2022-08-05T05:24:21.915Z,10.70
2022-08-05T05:29:25.035Z,10.20
2022-08-05T05:34:48.053Z,10.20
2022-08-05T05:39:55.460Z,10.00
2022-08-05T05:44:59.646Z,10.90
2022-08-05T05:50:06.674Z,10.10
2022-08-05T05:55:15.001Z,10.10
2022-08-05T06:00:21.787Z,9.90
2022-08-05T06:05:34.697Z,10.30
2022-08-05T06:10:52.523Z,9.50
2022-08-05T06:16:29.591Z,8.90
2022-08-05T06:21:19.132Z,9.20
2022-08-05T06:26:24.947Z,9.60
2022-08-05T06:31:30.470Z,9.00
2022-08-05T06:36:57.678Z,8.40
2022-08-05T06:42:03.874Z,8.70
2022-08-05T06:47:10.326Z,8.80
2022-08-05T06:52:37.067Z,8.90
2022-08-05T06:57:57.303Z,8.60
2022-08-05T07:03:09.782Z,8.20
2022-08-05T07:08:13.242Z,8.40
2022-08-05T07:13:56.781Z,8.20
2022-08-05T07:24:02.520Z,8.10
2022-08-05T07:29:05.967Z,8.30
2022-08-05T07:34:13.889Z,9.10
2022-08-05T07:39:50.342Z,7.80
2022-08-05T07:44:40.065Z,8.30
2022-08-05T07:49:54.291Z,7.70
2022-08-05T07:54:57.902Z,8.10
2022-08-05T08:00:01.991Z,7.60
2022-08-05T08:05:08.274Z,7.60
2022-08-05T08:10:14.632Z,7.80
2022-08-05T08:16:35.841Z,7.20
2022-08-05T08:21:02.342Z,7.00
2022-08-05T08:26:07.079Z,6.90
2022-08-05T08:31:14.925Z,6.90
2022-08-05T08:36:38.778Z,7.90
2022-08-05T08:42:00.148Z,7.00
2022-08-05T08:52:33.516Z,7.00
2022-08-05T08:57:48.162Z,7.10
2022-08-05T09:02:53.483Z,7.20
2022-08-05T09:07:57.353Z,7.00
2022-08-05T09:13:05.203Z,6.80
2022-08-05T09:18:13.381Z,7.60
2022-08-05T09:23:21.696Z,6.90
2022-08-05T09:28:31.959Z,7.00
2022-08-05T09:33:50.895Z,7.10
2022-08-05T09:39:18.472Z,6.90
2022-08-05T09:44:41.376Z,7.70
2022-08-05T09:50:01.959Z,7.20
2022-08-05T09:55:58.036Z,7.50
2022-08-05T10:00:31.495Z,7.20
2022-08-05T10:05:36.312Z,6.80
2022-08-05T10:10:54.518Z,7.80
2022-08-05T10:16:00.592Z,7.50
2022-08-05T10:21:11.927Z,7.30
2022-08-05T10:26:24.157Z,7.10
2022-08-05T10:32:53.045Z,7.70
2022-08-05T10:36:54.129Z,7.20
2022-08-05T10:42:18.591Z,7.50
2022-08-05T10:47:34.428Z,7.40
2022-08-05T10:52:58.486Z,7.80
2022-08-05T10:58:14.910Z,8.00
2022-08-05T11:03:23.239Z,8.80
2022-08-05T11:08:39.090Z,7.90
2022-08-05T11:13:54.798Z,8.10
2022-08-05T11:20:11.435Z,8.60
2022-08-05T11:26:05.896Z,8.10
2022-08-05T11:31:06.333Z,8.20
2022-08-05T11:36:11.519Z,8.10
2022-08-05T11:41:54.827Z,8.10
2022-08-05T11:46:58.728Z,8.70
2022-08-05T11:52:11.713Z,8.30
2022-08-05T11:57:25.003Z,7.70
2022-08-05T12:02:33.435Z,7.70
2022-08-05T12:08:08.264Z,8.00
2022-08-05T12:13:17.466Z,7.50
2022-08-05T12:18:34.595Z,8.50
2022-08-05T12:23:54.719Z,7.90
2022-08-05T12:28:57.778Z,7.90
2022-08-05T12:34:09.271Z,7.40
2022-08-05T12:39:34.758Z,7.30
2022-08-05T12:44:43.188Z,7.60
2022-08-05T12:50:04.339Z,7.60
2022-08-05T12:55:25.339Z,7.60
2022-08-05T13:02:03.964Z,7.30
2022-08-05T13:05:56.429Z,7.40
2022-08-05T13:11:02.263Z,7.20
2022-08-05T13:16:15.347Z,7.30
2022-08-05T13:21:20.423Z,7.30
2022-08-05T13:26:29.856Z,7.70
2022-08-05T13:31:33.847Z,7.60
2022-08-05T13:37:07.103Z,7.20
2022-08-05T13:42:15.005Z,6.70
2022-08-05T13:47:34.702Z,6.40
2022-08-05T13:52:39.457Z,6.30
2022-08-05T13:57:50.988Z,6.70
2022-08-05T14:03:01.141Z,6.80
2022-08-05T14:08:20.232Z,5.90
2022-08-05T14:13:25.619Z,6.30
2022-08-05T14:18:31.749Z,6.40
2022-08-05T14:23:37.285Z,7.30
2022-08-05T14:28:51.893Z,6.30
2022-08-05T14:33:59.592Z,6.00
2022-08-05T14:39:05.964Z,5.80
2022-08-05T14:44:20.585Z,5.30
2022-08-05T14:49:56.370Z,5.80
2022-08-05T14:54:57.671Z,6.20
2022-08-05T15:00:11.670Z,6.20
2022-08-05T15:05:18.341Z,5.90
2022-08-05T15:10:28.741Z,6.00
2022-08-05T15:15:55.505Z,5.40
2022-08-05T15:20:59.036Z,5.80
2022-08-05T15:26:11.121Z,5.80
2022-08-05T15:31:16.764Z,6.70
2022-08-05T15:36:24.471Z,6.50
2022-08-05T15:41:57.729Z,6.90
2022-08-05T15:46:57.301Z,6.90
2022-08-05T15:52:10.083Z,6.70
2022-08-05T15:57:21.010Z,6.20
2022-08-05T16:02:27.707Z,5.70
2022-08-05T16:07:35.434Z,6.60
2022-08-05T16:12:38.494Z,6.40
2022-08-05T16:17:41.503Z,6.30
2022-08-05T16:22:44.499Z,6.90
2022-08-05T16:28:02.115Z,6.40
2022-08-05T16:33:09.290Z,5.90
2022-08-05T16:38:23.851Z,5.40
2022-08-05T16:43:32.687Z,6.10
2022-08-05T16:48:39.162Z,6.50
2022-08-05T16:54:04.111Z,6.60
2022-08-05T16:59:11.042Z,5.50
2022-08-05T17:04:18.744Z,5.90
2022-08-05T17:09:23.202Z,5.70
2022-08-05T17:14:36.720Z,6.40
2022-08-05T17:19:45.290Z,5.70
2022-08-05T17:24:57.921Z,5.90
2022-08-05T17:30:12.028Z,5.70
2022-08-05T17:35:22.230Z,6.40
2022-08-05T17:40:25.333Z,6.80
2022-08-05T17:45:37.962Z,6.30
2022-08-05T17:50:42.000Z,5.70
2022-08-05T17:55:47.526Z,6.70
2022-08-05T18:00:52.048Z,6.70
2022-08-05T18:06:04.235Z,7.50
2022-08-05T18:11:07.306Z,8.50
2022-08-05T18:16:13.526Z,9.50
2022-08-05T18:21:21.387Z,8.70
2022-08-05T18:26:32.005Z,8.80
2022-08-05T18:31:36.156Z,8.80
2022-08-05T18:36:39.483Z,8.70
2022-08-05T18:41:57.003Z,9.30
2022-08-05T18:47:12.190Z,9.50
2022-08-05T18:52:52.293Z,9.40
2022-08-05T18:58:04.138Z,10.00
2022-08-05T19:03:09.065Z,11.00
2022-08-05T19:08:15.867Z,12.20
2022-08-05T19:13:21.853Z,11.80
2022-08-05T19:18:27.611Z,12.40
2022-08-05T19:24:05.634Z,33.10
2022-08-05T19:28:56.126Z,50.00
2022-08-05T19:33:59.899Z,24.80
2022-08-05T19:39:19.556Z,23.50
2022-08-05T19:44:24.784Z,20.80
2022-08-05T19:49:32.363Z,21.00
2022-08-05T19:54:36.882Z,21.40
2022-08-05T20:00:01.247Z,18.30
2022-08-05T20:05:09.744Z,17.40
2022-08-05T20:10:24.441Z,17.70
2022-08-05T20:15:52.662Z,17.60
2022-08-05T20:20:59.880Z,17.40
2022-08-05T20:26:06.800Z,15.90
2022-08-05T20:31:09.981Z,16.30
2022-08-05T20:36:16.446Z,15.90
2022-08-05T20:41:24.251Z,16.20
2022-08-05T20:46:30.955Z,16.90
2022-08-05T20:51:35.010Z,18.80
2022-08-05T20:56:42.529Z,18.00
2022-08-05T21:01:46.165Z,17.50
2022-08-05T21:06:50.287Z,17.40
2022-08-05T21:12:09.345Z,17.40
2022-08-05T21:17:17.194Z,17.00
2022-08-05T21:22:23.380Z,17.10
2022-08-05T21:27:27.468Z,16.10
2022-08-05T21:32:33.518Z,16.30
2022-08-05T21:37:41.080Z,16.90
2022-08-05T21:42:45.789Z,16.70
2022-08-05T21:47:56.628Z,16.10
2022-08-05T21:53:04.319Z,17.70
2022-08-05T21:58:14.832Z,17.30
2022-08-05T22:03:52.003Z,16.90
2022-08-05T22:08:44.516Z,16.20
2022-08-05T22:14:05.829Z,17.10
2022-08-05T22:19:56.169Z,17.60
2022-08-05T22:24:59.594Z,17.20
2022-08-05T22:30:03.656Z,16.50
2022-08-05T22:35:07.981Z,16.60
2022-08-05T22:40:36.920Z,18.00
2022-08-05T22:45:58.497Z,17.90
2022-08-05T22:51:06.987Z,18.00
2022-08-05T22:56:10.496Z,17.60
2022-08-05T23:01:16.403Z,17.50
2022-08-05T23:06:19.433Z,17.30
2022-08-05T23:11:29.294Z,17.50
2022-08-05T23:16:55.567Z,17.70
2022-08-05T23:21:58.600Z,18.70
2022-08-05T23:27:01.695Z,17.80
2022-08-05T23:32:05.543Z,18.00
2022-08-05T23:37:08.626Z,18.90
2022-08-05T23:42:23.407Z,18.40
2022-08-05T23:47:33.811Z,17.60
2022-08-05T23:52:49.705Z,17.30
2022-08-05T23:57:53.779Z,19.50
